UKHH/HRK METAR and TAF weather

Enter ICAO airport designator
Station Type Date Time Source
UKHH METAR 2021/05/12 01:30 UTC NOAA

UKHH 120130Z 08008MPS 9999 SCT020CB BKN036 09/05 Q1017 R07/0///81 TEMPO 09009G16MPS


Station Type Date Time Source
UKHH Decoded METAR 2021/05/12 01:30 UTC NOAA

Kharkiv, Ukraine (UKHH) 49-58N 036-08E 155M
May 11, 2021 - 09:30 PM EDT / 2021.05.12 0130 UTC
Wind: from the E (080 degrees) at 18 MPH (16 KT):0
Visibility: greater than 7 mile(s):0
Sky conditions: mostly cloudy
Weather: Cumulonimbus clouds observed
Temperature: 48 F (9 C)
Dew Point: 41 F (5 C)
Relative Humidity: 75%
Pressure (altimeter): 30.03 in. Hg (1017 hPa)
ob: UKHH 120130Z 08008MPS 9999 SCT020CB BKN036 09/05 Q1017 R07/0///81 TEMPO 09009G16MPS
cycle: 1

Station Type Date Time Source
UKHH TAF 2021/05/11 18:24 UTC NOAA

TAF UKHH 111706Z 1118/1218 06008G13MPS 9999 BKN015 SCT020CB
TEMPO 1118/1124 07009G16MPS 2100 -SHRA BKN007 BKN015CB PROB40
TEMPO 1118/1124 -TSRA
TEMPO 1200/1218 09009G16MPS 2100 -SHRA BKN007 BKN015CB PROB40
TEMPO 1200/1218 -TSRA

Example: see airport list